« Back
NWS Peachtree City, Ga » Text Product » AHN Terminal Aerodrome Forecast


Printer-friendly Version
Current Version              Previous Versions:   1  2  3  4  5  6  7  8  9  

Terminal Aerodrome Forecast

691
FTAK31 PAJN 291100 RRA
TAFAHN
TAF
PAHN 291142Z 2912/3012 VRB04KT P6SM -SHRA BKN015 OVC050
     FM291600 12006KT P6SM -SHRA BKN030 OVC060
     FM292100 12008KT P6SM VCSH SCT030 OVC060
     FM300300 12006KT P6SM VCSH SCT025 BKN050
     FM300900 VRB03KT P6SM VCSH SCT015 OVC050
      AMD LTD TO CLD VIS AND WIND=



USA.gov is the U.S. government's official web portal to all federal, state and local government web resources and services.